ADDS METAR Data INFO
IDs: Format: Raw Decoded Include TAF

Data at: 2252 UTC 22 Jun 2018

KCSQ 222235Z AUTO 03005KT 10SM FEW041 OVC050 21/16 A2984 RMK AO2
KCSQ 222215Z AUTO 04005KT 10SM OVC039 21/16 A2984 RMK AO2
KCSQ 222155Z AUTO 04005G10KT 10SM FEW025 OVC037 21/16 A2984 RMK AO2
KCSQ 222135Z AUTO 02006KT 10SM BKN036 OVC043 21/16 A2984 RMK AO2
KCSQ 222115Z AUTO 02004KT 10SM BKN038 OVC044 21/16 A2985 RMK AO2
KCSQ 222055Z AUTO 02005KT 10SM SCT029 OVC035 20/16 A2985 RMK AO2
KCSQ 222035Z AUTO 01008KT 10SM BKN028 BKN033 OVC045 21/16 A2986 RMK AO2
KCSQ 222015Z AUTO 35004KT 10SM SCT028 OVC040 21/15 A2986 RMK AO2
KCSQ 221955Z AUTO 03007KT 10SM SCT026 BKN036 OVC043 21/16 A2986 RMK AO2
KCSQ 221935Z AUTO 04006KT 10SM FEW023 OVC039 22/16 A2986 RMK AO2
KCSQ 221915Z AUTO 02007KT 10SM SCT030 OVC037 21/17 A2987 RMK AO2
KCSQ 221855Z AUTO 01009KT 10SM OVC031 20/16 A2987 RMK AO2
KCSQ 221835Z AUTO 03006KT 10SM BKN030 OVC037 20/16 A2988 RMK AO2
KCSQ 221815Z AUTO 03007KT 10SM BKN026 OVC032 20/16 A2988 RMK AO2
KCSQ 221755Z AUTO 02004KT 10SM FEW019 BKN026 OVC031 20/16 A2988 RMK AO2
KCSQ 221735Z AUTO 02006KT 10SM BKN019 OVC026 20/16 A2988 RMK AO2
KCSQ 221715Z AUTO 36005G10KT 10SM SCT015 SCT022 OVC028 20/16 A2988 RMK AO2
KCSQ 221655Z AUTO 36006KT 10SM BKN013 BKN022 OVC040 19/16 A2989 RMK AO2
KCSQ 221635Z AUTO 35004KT 10SM OVC013 18/16 A2990 RMK AO2
KCSQ 221615Z AUTO 02006KT 10SM OVC012 18/16 A2989 RMK AO2
KCSQ 221555Z AUTO 03006KT 10SM BKN009 OVC014 17/16 A2989 RMK AO2
KCSQ 221535Z AUTO 02007KT 8SM OVC009 17/16 A2988 RMK AO2
KCSQ 221515Z AUTO 05007KT 9SM BKN008 OVC012 17/16 A2988 RMK AO2
KCSQ 221455Z AUTO 04008KT 7SM BKN007 OVC011 17/16 A2988 RMK AO2 P0001
KCSQ 221435Z AUTO 04007KT 9SM OVC007 17/16 A2987 RMK AO2
KCSQ 221415Z AUTO 05006KT 4SM BR OVC005 16/16 A2987 RMK AO2
KCSQ 221355Z AUTO 03008KT 7SM OVC005 16/16 A2987 RMK AO2 P0002
KCSQ 221335Z AUTO 04010KT 8SM OVC006 16/15 A2986 RMK AO2
KCSQ 221315Z AUTO 02012KT 10SM OVC006 16/15 A2986 RMK AO2
KCSQ 221255Z AUTO 03009KT 9SM OVC006 16/15 A2986 RMK AO2 P0002
KCSQ 221235Z AUTO 03011KT 9SM BKN006 BKN027 OVC032 16/15 A2986 RMK AO2
KCSQ 221215Z AUTO 03010KT 10SM SCT006 OVC036 16/15 A2985 RMK AO2
KCSQ 221155Z AUTO 03008KT 8SM SCT006 BKN017 OVC037 15/15 A2986 RMK AO2 P0002
KCSQ 221135Z AUTO 03008KT 9SM BKN005 OVC017 15/15 A2986 RMK AO2
KCSQ 221115Z AUTO VRB04KT 5SM BR OVC004 15/14 A2987 RMK AO2
KCSQ 221055Z AUTO 02011KT 7SM OVC005 15/14 A2986 RMK AO2 P0004
KCSQ 221035Z AUTO 36007G14KT 3SM BR BKN005 OVC008 15/14 A2986 RMK AO2
KCSQ 221015Z AUTO 01009G14KT 3SM BR OVC008 15/14 A2986 RMK AO2
KCSQ 220955Z AUTO 36011KT 9SM OVC009 15/14 A2985 RMK AO2 P0004
KCSQ 220935Z AUTO 35009KT 10SM OVC010 16/14 A2985 RMK AO2
KCSQ 220855Z AUTO 35007KT 10SM BKN010 OVC022 16/14 A2984 RMK AO2 P0005
KCSQ 220835Z AUTO 01009KT 10SM SCT008 BKN011 OVC023 16/14 A2984 RMK AO2
KCSQ 220755Z AUTO 02008KT 10SM OVC024 16/14 A2984 RMK AO2 P0004
KCSQ 220735Z AUTO 02009KT 10SM FEW010 OVC024 16/14 A2983 RMK AO2
KCSQ 220715Z AUTO 02010KT 10SM FEW010 OVC023 16/15 A2984 RMK AO2
KCSQ 220655Z AUTO 02010KT 8SM FEW013 OVC023 16/15 A2984 RMK AO2 P0006
KCSQ 220635Z AUTO 01009KT 10SM OVC012 16/15 A2984 RMK AO2
KCSQ 220615Z AUTO 01010KT 10SM OVC010 16/15 A2985 RMK AO2
KCSQ 220555Z AUTO 01009KT 10SM OVC008 16/15 A2984 RMK AO2 P0007
KCSQ 220535Z AUTO 02011KT 10SM OVC006 16/15 A2984 RMK AO2
KCSQ 220515Z AUTO 01011G16KT 9SM BKN005 OVC010 17/16 A2984 RMK AO2
KCSQ 220455Z AUTO 02013KT 6SM BR BKN005 OVC010 17/16 A2984 RMK AO2 P0006
KCSQ 220435Z AUTO 02011G19KT 4SM BR BKN005 OVC011 17/17 A2984 RMK AO2
KCSQ 220415Z AUTO 01014KT 5SM BR OVC006 18/17 A2984 RMK AO2
KCSQ 220355Z AUTO 02010KT 5SM BR OVC006 18/18 A2984 RMK AO2 P0005
KCSQ 220335Z AUTO 02011KT 4SM BR BKN006 BKN010 OVC018 18/18 A2985 RMK AO2
KCSQ 220315Z AUTO 02010KT 6SM BR SCT007 OVC017 19/18 A2984 RMK AO2
KCSQ 220255Z AUTO 02011KT 10SM SCT008 BKN017 OVC023 19/18 A2983 RMK AO2 P0006
KCSQ 220235Z AUTO 02014KT 10SM FEW008 FEW014 OVC022 19/18 A2982 RMK AO2
KCSQ 220215Z AUTO 02012KT 10SM SCT009 BKN013 OVC027 19/18 A2981 RMK AO2
KCSQ 220155Z AUTO 01012KT 10SM SCT010 BKN015 OVC025 19/18 A2980 RMK AO2 P0006
KCSQ 220135Z AUTO 01010G16KT 10SM FEW013 SCT018 BKN027 20/18 A2980 RMK AO2
KCSQ 220115Z AUTO 01010KT 10SM FEW012 BKN019 OVC037 20/19 A2979 RMK AO2
KCSQ 220055Z AUTO 03006G12KT 3SM -RA SCT003 BKN014 OVC041 19/18 A2978 RMK AO2 P0003
KCSQ 220035Z AUTO 04013KT 1/4SM +RA OVC003 19/18 A2978 RMK AO2
KCSQ 220015Z AUTO 01005KT 7SM -RA SCT027 BKN037 OVC065 20/18 A2977 RMK AO2
KCSQ 212355Z AUTO 03006KT 2SM -RA SCT027 BKN035 OVC043 19/18 A2977 RMK AO2
KCSQ 212335Z AUTO 36007KT 9SM -RA SCT035 BKN041 OVC055 21/17 A2977 RMK AO2
KCSQ 212315Z AUTO 01008KT 10SM BKN055 BKN085 22/17 A2976 RMK AO2
KCSQ 212255Z AUTO 36007KT 10SM CLR 22/17 A2976 RMK AO2
KCSQ 212235Z AUTO VRB06KT 10SM SCT060 23/17 A2976 RMK AO2
KCSQ 212215Z AUTO 02005KT 10SM OVC055 21/17 A2976 RMK AO2
KCSQ 212135Z AUTO 02006G12KT 10SM SCT032 SCT060 22/17 A2976 RMK AO2
KCSQ 212115Z AUTO 04006KT 10SM FEW017 SCT025 BKN055 21/18 A2976 RMK AO2
KCSQ 212055Z AUTO 06006KT 10SM BKN017 BKN026 OVC055 21/17 A2976 RMK AO2
KCSQ 212035Z AUTO 06006KT 10SM FEW015 SCT036 BKN044 21/18 A2976 RMK AO2
KCSQ 212015Z AUTO 03005KT 8SM SCT025 BKN036 19/17 A2976 RMK AO2
KCSQ 211955Z AUTO 03011KT 10SM FEW018 BKN027 OVC032 20/17 A2975 RMK AO2
KCSQ 211935Z AUTO 03006KT 10SM BKN030 OVC036 21/16 A2974 RMK AO2
KCSQ 211915Z AUTO 03005KT 10SM FEW017 BKN029 OVC035 20/16 A2974 RMK AO2
KCSQ 211855Z AUTO 01006KT 10SM FEW017 BKN022 OVC035 20/16 A2974 RMK AO2
KCSQ 211835Z AUTO 36006KT 10SM SCT019 BKN028 OVC039 20/16 A2974 RMK AO2
KCSQ 211815Z AUTO 00000KT 10SM FEW018 BKN026 OVC036 20/16 A2974 RMK AO2
KCSQ 211755Z AUTO 00000KT 10SM FEW017 SCT026 OVC035 20/15 A2974 RMK AO2
KCSQ 211735Z AUTO 00000KT 10SM BKN025 OVC033 19/15 A2974 RMK AO2
KCSQ 211715Z AUTO 00000KT 10SM OVC024 19/15 A2974 RMK AO2
KCSQ 211655Z AUTO 00000KT 10SM FEW016 OVC024 19/16 A2974 RMK AO2
KCSQ 211635Z AUTO 00000KT 10SM BKN015 OVC025 18/15 A2973 RMK AO2
KCSQ 211615Z AUTO 00000KT 10SM SCT019 OVC027 18/15 A2973 RMK AO2
KCSQ 211555Z AUTO 22003KT 10SM SCT014 OVC025 18/15 A2972 RMK AO2
KCSQ 211535Z AUTO 22005KT 10SM BKN012 BKN017 OVC022 18/16 A2971 RMK AO2
KCSQ 211515Z AUTO 23005KT 10SM BKN012 OVC018 17/16 A2971 RMK AO2
KCSQ 211455Z AUTO 23007G13KT 210V270 10SM FEW007 BKN012 OVC020 17/16 A2972 RMK AO2
KCSQ 211435Z AUTO 24010KT 10SM BKN007 OVC011 17/16 A2972 RMK AO2
KCSQ 211415Z AUTO 24008G13KT 10SM BKN008 BKN013 OVC019 17/16 A2972 RMK AO2
KCSQ 211355Z AUTO 24008KT 10SM SCT008 BKN013 OVC020 17/16 A2972 RMK AO2
KCSQ 211335Z AUTO 24009KT 6SM BR BKN007 OVC014 16/16 A2972 RMK AO2
KCSQ 211315Z AUTO 25011KT 6SM BR BKN007 OVC016 16/16 A2972 RMK AO2
KCSQ 211255Z AUTO 24008KT 5SM BR BKN007 OVC016 16/16 A2972 RMK AO2
KCSQ 211235Z AUTO 24008KT 5SM BR OVC005 16/16 A2972 RMK AO2
KCSQ 211215Z AUTO 24008KT 5SM BR OVC004 16/15 A2972 RMK AO2
KCSQ 211155Z AUTO 23007KT 2SM BR OVC003 16/15 A2972 RMK AO2
KCSQ 211135Z AUTO 24008KT 1 1/2SM BR OVC004 16/15 A2972 RMK AO2
KCSQ 211115Z AUTO 24008KT 1 1/4SM BR OVC003 16/15 A2972 RMK AO2
KCSQ 211055Z AUTO 24007KT 1 3/4SM BR OVC003 16/15 A2972 RMK AO2